KAWG

Washington Municipal Airport

Washington, Iowa, USA
METAR KAWG 191955Z AUTO 00000KT 4SM -RA FEW004 FEW070 22/22 A2989 RMK AO2
Observed Flight Rules
Jun-19 @ 19:55 UTC (20 minutes ago) Marginal Visual Flight Rules
Visibility Clouds Conditions
4 miles
  • Few at 400' AGL
  • Few at 7,000' AGL
  • Light Rain
Temperatures Readings
Current 22°C / 72°F
Dewpoint 22°C / 72°F
Humidity 100%
Altimeter 29.89" Hg
Pressure 1012 hPa
Elevation 230
METAR KAWG 191955Z AUTO 00000KT 4SM -RA FEW004 FEW070 22/22 A2989 RMK AO2
Observed Flight Rules
Jun-19 @ 19:55 UTC
(20 minutes ago)
MVFR
Clouds
  • Few at 400' AGL
  • Few at 7,000' AGL
Conditions
  • Light Rain
Temperature Dewpoint
22°C / 72°F 22°C / 72°F
Humidity Altimeter Pressure
100% 29.89" Hg 1012 hPa